logo
App data

Elven Legacy: Ranger

First addon for Elven Legacy wargame.
Store | Hub | SteamDB | Site
Developer: 1C:InoCo Publisher: 1C Entertainment
Genre: Strategy
Languages: English, Russian
Tags: Strategy (23)
Category: Single-player, Steam Cloud
Release date: Oct 20, 2009
Price: $1.99
Metascore: 68%
Owners: 20,000 .. 50,000
Followers: 182
Peak concurrent players yesterday: 1
YouTube stats: 1 views and 2 comments for top 50 videos uploaded last week, 0 new videos uploaded yesterday.

Steam Spy is still in beta, so expect major bugs.

Owners data:

Access restricted.

This feature is only available to users with special access rights. Sorry.

If you want to proceed, you need to register or log in first and then back Steam Spy on Patreon. Look for Indie or Pro pledge.

Don't forget to use the same email as on Steam Spy!

Audience in 2 weeks:

Access restricted.

This feature is only available to users with special access rights. Sorry.

If you want to proceed, you need to register or log in first and then back Steam Spy on Patreon. Look for Indie or Pro pledge.

Don't forget to use the same email as on Steam Spy!

Peak daily concurrent players:

CCU data courtesy of SteamDB. Used with permission.

Hourly concurrent players:

Followers over time

Access restricted.

This feature is only available to users with special access rights. Sorry.

If you want to proceed, you need to register or log in first and then back Steam Spy on Patreon. Look for Indie or Pro pledge.

Don't forget to use the same email as on Steam Spy!

Views for top 50 videos on YouTube for this game:

Games similar to this one:

# Game Release date
Price
Score rank
(Userscore / Metascore)
Owners
Players
Playtime (Median)
1 Pang Adventures Apr 18, 2016 $9.99N/A (N/A)20,000 .. 50,00020%00:30 (00:15)
2 Hitman GO: Definitive Edition Feb 23, 2016 $7.99N/A (N/A/72%)100,000 .. 200,0000%00:00 (00:00)
3 Crown and Council Jan 27, 2017 FreeN/A (N/A)100,000 .. 200,0000%00:00 (00:00)
4 Atlas Reactor VR Character Viewer Apr 5, 2016 N/AN/A (N/A)20,000 .. 50,0000%00:00 (00:00)
5 ROD: Revolt Of Defense Aug 12, 2016 $0.99N/A (N/A)20,000 .. 50,0000%00:00 (00:00)
6 Age of Wonders II: The Wizard's Throne Oct 2010 $9.99N/A (N/A/86%)50,000 .. 100,0000%00:00 (00:00)
7 Ironclads: American Civil War Jan 8, 2009 $9.99N/A (N/A)20,000 .. 50,0000%00:00 (00:00)
8 Swords and Soldiers HD Dec 2, 2010 $9.99N/A (N/A)200,000 .. 500,0000%00:00 (00:00)
9 Ironclads: High Seas Nov 10, 2009 $9.99N/A (N/A)20,000 .. 50,0000%00:00 (00:00)
10 Fantasy Wars Aug 6, 2010 $4.99N/A (N/A/67%)50,000 .. 100,0000%00:00 (00:00)
11 Ironclads: Schleswig War 1864 Jun 21, 2011 $9.99N/A (N/A)20,000 .. 50,0000%00:00 (00:00)
12 Theatre of War 3: Korea Mar 24, 2011 $6.99N/A (N/A/49%)50,000 .. 100,0000%00:00 (00:00)
13 Ironclads: Anglo Russian War 1866 Jun 21, 2011 $9.99N/A (N/A)20,000 .. 50,0000%00:00 (00:00)
14 Archon Classic Nov 2, 2010 $9.99N/A (N/A)20,000 .. 50,0000%00:00 (00:00)
15 Greed Corp Dec 10, 2010 $9.99N/A (N/A/76%)200,000 .. 500,0000%00:00 (00:00)
16 Guardians of Graxia Nov 1, 2010 N/AN/A (N/A)50,000 .. 100,0000%00:00 (00:00)
17 Flotilla Mar 29, 2010 $9.99N/A (N/A/72%)100,000 .. 200,0000%00:00 (00:00)
18 Hydrophobia: Prophecy May 9, 2011 $4.99N/A (N/A/64%)200,000 .. 500,0000%00:00 (00:00)
19 Power of Defense Aug 4, 2010 $9.99N/A (N/A)0 .. 20,0000%00:00 (00:00)
20 Future Wars Apr 7, 2010 $4.99N/A (N/A)50,000 .. 100,0000%00:00 (00:00)
21 Age of Wonders Oct 2010 $5.99N/A (N/A)100,000 .. 200,0000%00:00 (00:00)
22 Robin Hood: The Legend of Sherwood Nov 1, 2002 $7.99N/A (N/A/80%)100,000 .. 200,0000%00:00 (00:00)
23 Pyrite Heart Sep 26, 2014 $4.99N/A (N/A)0 .. 20,0000%00:00 (00:00)
24 Machines At War 3 Jul 23, 2014 $14.99N/A (N/A)0 .. 20,0000%00:00 (00:00)
25 7th Legion Jan 1, 1997 $6.99N/A (N/A)20,000 .. 50,0000%00:00 (00:00)
26 Wildlife Park 2 - Crazy Zoo Mar 30, 2007 $3.99N/A (N/A)20,000 .. 50,0000%00:00 (00:00)
27 Deadlock II: Shrine Wars Jan 1, 1998 $6.99N/A (N/A)0 .. 20,0000%00:00 (00:00)
28 War in a Box: Paper Tanks Jul 4, 2014 $4.99N/A (N/A)50,000 .. 100,0000%00:00 (00:00)
29 Survivor Squad: Gauntlets Nov 16, 2015 $4.99N/A (N/A)20,000 .. 50,0000%00:00 (00:00)
30 The Nightmare Cooperative Jul 16, 2014 $4.99N/A (N/A)50,000 .. 100,0000%00:00 (00:00)
31 ORB Nov 8, 2002 $4.99N/A (N/A)20,000 .. 50,0000%00:00 (00:00)
32 War on Folvos Sep 25, 2006 $3.99N/A (N/A)50,000 .. 100,0000%00:00 (00:00)
33 Evolution RTS Apr 4, 2014 FreeN/A (N/A)100,000 .. 200,0000%00:00 (00:00)
34 Tiestru Aug 20, 2014 $9.99N/A (N/A)0 .. 20,0000%00:00 (00:00)
35 Haegemonia: The Solon Heritage May 1, 2014 $4.99N/A (N/A)20,000 .. 50,0000%00:00 (00:00)
36 Reprisal Universe Sep 15, 2014 $6.99N/A (N/A)20,000 .. 50,0000%00:00 (00:00)
37 Warrior Kings Apr 13, 2002 $9.99N/A (N/A/73%)0 .. 20,0000%00:00 (00:00)
38 Gods vs Humans Sep 5, 2013 $4.99N/A (N/A)20,000 .. 50,0000%00:00 (00:00)
39 Rush for Glory Jun 16, 2014 $14.99N/A (N/A)20,000 .. 50,0000%00:00 (00:00)
40 Hogs of War Nov 3, 2000 $2.11N/A (N/A)20,000 .. 50,0000%00:00 (00:00)
41 Helldorado Apr 30, 2009 $9.99N/A (N/A/65%)20,000 .. 50,0000%00:00 (00:00)
42 Synonymy Dec 12, 2014 $1.99N/A (N/A)20,000 .. 50,0000%00:00 (00:00)
43 Company of Heroes: Opposing Fronts Sep 27, 2007 $19.99N/A (N/A/87%)2,000,000 .. 5,000,0000%00:00 (00:00)
44 WARSHIFT Oct 12, 2016 $9.99N/A (N/A)20,000 .. 50,0000%00:00 (00:00)
45 Red Faction II Apr 9, 2003 $9.99N/A (N/A/64%)200,000 .. 500,0000%00:00 (00:00)
46 Universal Combat CE Feb 6, 2015 $9.99N/A (N/A)200,000 .. 500,0000%00:00 (00:00)
47 Desperados 2: Cooper's Revenge May 2, 2006 $9.99N/A (N/A/66%)20,000 .. 50,0000%00:00 (00:00)
48 The Seven Years War (1756-1763) Oct 30, 2015 $19.99N/A (N/A)20,000 .. 50,0000%00:00 (00:00)
49 Battlestations: Midway Jan 30, 2007 $6.99N/A (N/A/76%)200,000 .. 500,0000%00:00 (00:00)
50 No Pineapple Left Behind Feb 18, 2016 $6.99N/A (N/A/59%)0 .. 20,0000%00:00 (00:00)
51 Maelstrom: The Battle for Earth Begins Feb 20, 2007 $4.99N/A (N/A/58%)20,000 .. 50,0000%00:00 (00:00)
52 Master of Orion 1 Nov 22, 1996 $5.99N/A (N/A)200,000 .. 500,0000%00:00 (00:00)
53 Two Worlds II Castle Defense Jun 14, 2011 $9.99N/A (N/A)200,000 .. 500,0001.27%05:33 (01:51)
54 Ceres Oct 16, 2015 $19.99N/A (N/A/74%)0 .. 20,0000%00:00 (00:00)
55 Perimeter 2: New Earth Feb 10, 2009 $14.99N/A (N/A/43%)0 .. 20,0000%00:00 (00:00)
56 Master of Orion 3 Feb 25, 2003 $9.99N/A (N/A/64%)200,000 .. 500,0000%00:00 (00:00)
57 X-COM: Terror From the Deep Apr 1, 1995 $4.99N/A (N/A)500,000 .. 1,000,0000%00:00 (00:00)
58 Stalingrad Apr 5, 2005 $4.99N/A (N/A)20,000 .. 50,0000%00:00 (00:00)
59 BC Kings Sep 15, 2008 $4.99N/A (N/A)20,000 .. 50,0000%00:00 (00:00)
60 Codename: Panzers, Phase One Jun 16, 2004 $14.99N/A (N/A/81%)20,000 .. 50,0000%00:00 (00:00)
61 X-COM: Apocalypse Jul 15, 1997 $4.99N/A (N/A)500,000 .. 1,000,0000%00:00 (00:00)
62 Cuban Missile Crisis May 6, 2005 $4.99N/A (N/A)20,000 .. 50,0000%00:00 (00:00)
63 9th Company: Roots Of Terror Dec 3, 2009 $1.99N/A (N/A)20,000 .. 50,0000%00:00 (00:00)
64 Codename: Panzers, Phase Two Jul 21, 2005 $14.99N/A (N/A/80%)0 .. 20,0000%00:00 (00:00)
65 X-COM: Interceptor Jun 15, 1998 $4.99N/A (N/A)50,000 .. 100,0000%00:00 (00:00)
66 Interloper May 21, 2015 FreeN/A (N/A/77%)20,000 .. 50,0000%00:00 (00:00)
67 Prison Tycoon 3: Lockdown Aug 1, 2007 $9.99N/A (N/A)20,000 .. 50,0000%00:00 (00:00)
68 Neocolonialism Nov 25, 2014 $2.99N/A (N/A)0 .. 20,0000%00:00 (00:00)
69 X-COM: Enforcer Apr 19, 2001 $4.99N/A (N/A/65%)100,000 .. 200,0000%00:00 (00:00)
70 Wyrmsun May 22, 2015 FreeN/A (N/A)20,000 .. 50,0000%00:00 (00:00)
71 Heroes of Might & Magic V: Hammers of Fate Nov 14, 2006 $9.99N/A (N/A/66%)50,000 .. 100,0000%00:00 (00:00)
72 Wildlife Park - Wild Creatures Apr 1, 2015 $3.89N/A (N/A)0 .. 20,0000%00:00 (00:00)
73 Warhammer 40,000: Dawn of War – Winter Assault Jan 1, 2006 $12.99N/A (N/A)500,000 .. 1,000,0000%00:00 (00:00)
74 Meridian: New World Apr 4, 2014 $1.74N/A (N/A/43%)100,000 .. 200,0000%00:00 (00:00)
75 Earth 2140 Nov 15, 2013 $4.99N/A (N/A)200,000 .. 500,0002.44%04:36 (03:03)
76 Etherlords Nov 12, 2001 $4.99N/A (N/A/77%)100,000 .. 200,0000%00:00 (00:00)
77 Earth 2150 Trilogy May 20, 2000 $6.99N/A (N/A/78%)100,000 .. 200,0002.27%05:37 (03:44)
78 Praetorians Mar 10, 2003 $4.99N/A (N/A/78%)100,000 .. 200,0000%00:00 (00:00)
79 World War III: Black Gold Oct 16, 2001 $4.99N/A (N/A/71%)200,000 .. 500,0002.22%05:05 (03:23)
80 Tiny Troopers Aug 24, 2012 $0.89N/A (N/A/57%)100,000 .. 200,0000%00:00 (00:00)
81 Ground Control II: Operation Exodus Jun 18, 2004 $4.99N/A (N/A/80%)20,000 .. 50,0000%00:00 (00:00)
82 The Game of Life Jun 10, 2013 $9.99N/A (N/A)20,000 .. 50,0000%00:00 (00:00)
83 MoonBase Commander Aug 13, 2002 $5.99N/A (N/A/77%)20,000 .. 50,0000%00:00 (00:00)
84 Armada 2526 Gold Edition Feb 28, 2013 $19.99N/A (N/A/66%)20,000 .. 50,0000%00:00 (00:00)
85 Tank Operations: European Campaign Nov 22, 2013 N/AN/A (N/A)20,000 .. 50,0000%00:00 (00:00)
86 Eador: Genesis Aug 7, 2009 $5.99N/A (N/A)50,000 .. 100,0000%00:00 (00:00)
87 Ninja Cats vs Samurai Dogs Feb 21, 2014 $4.99N/A (N/A)0 .. 20,0000%00:00 (00:00)
88 UFO: Afterlight Feb 8, 2007 $6.99N/A (N/A/71%)200,000 .. 500,0000%00:00 (00:00)
89 Desperados: Wanted Dead or Alive Jul 23, 2001 $4.99N/A (N/A/78%)100,000 .. 200,0000%00:00 (00:00)
90 Dominions 3: The Awakening Sep 10, 2013 $19.99N/A (N/A/82%)20,000 .. 50,0000%00:00 (00:00)
91 Arena Wars 2 Oct 12, 2012 $3.99N/A (N/A)20,000 .. 50,0000%00:00 (00:00)
92 American Conquest: Fight Back Sep 30, 2003 $4.99N/A (N/A/66%)50,000 .. 100,0000%00:00 (00:00)
93 Check vs Mate Aug 16, 2012 $19.99N/A (N/A/69%)0 .. 20,0000%00:00 (00:00)
94 Oil Rush Jan 25, 2012 $7.99N/A (N/A/67%)200,000 .. 500,0000%00:00 (00:00)
95 Viking: Battle for Asgard Oct 17, 2012 $14.99N/A (N/A)1,000,000 .. 2,000,0000%00:00 (00:00)
96 Dungeons - The Dark Lord Sep 27, 2011 $19.99N/A (N/A/72%)100,000 .. 200,0000%00:00 (00:00)
97 Galactic Civilizations I: Ultimate Edition Aug 14, 2012 $9.99N/A (N/A/83%)100,000 .. 200,0000%00:00 (00:00)
98 Disciples III - Resurrection Oct 11, 2011 $14.99N/A (N/A/63%)100,000 .. 200,0000%00:00 (00:00)
99 Kohan: Immortal Sovereigns Mar 15, 2001 $9.99N/A (N/A/87%)20,000 .. 50,0000%00:00 (00:00)
100 Real Warfare 2: Northern Crusades Nov 18, 2011 $4.99N/A (N/A)50,000 .. 100,0000%00:00 (00:00)
101 Demolition Inc. Sep 19, 2011 $5.99N/A (N/A)50,000 .. 100,0000%00:00 (00:00)
102 Men of War: Condemned Heroes Apr 12, 2012 $7.99N/A (N/A/57%)100,000 .. 200,0000%00:00 (00:00)
103 Memoir '44 Online Oct 12, 2011 FreeN/A (N/A)200,000 .. 500,0000%00:00 (00:00)
104 Crusader Kings Complete Feb 14, 2012 $9.99N/A (N/A/73%)100,000 .. 200,0000%00:00 (00:00)
105 Cossacks II: Napoleonic Wars Apr 26, 2005 $4.99N/A (N/A/73%)50,000 .. 100,0000%00:00 (00:00)
106 Cubemen Mar 16, 2012 $3.99N/A (N/A/74%)100,000 .. 200,0000%00:00 (00:00)
107 American Conquest Feb 7, 2003 $4.99N/A (N/A/76%)50,000 .. 100,0000%00:00 (00:00)
108 Rush for Berlin Gold Oct 29, 2009 $4.99N/A (N/A/76%)20,000 .. 50,0000%00:00 (00:00)
109 Reign: Conflict of Nations Jun 30, 2010 $3.99N/A (N/A/60%)50,000 .. 100,0000%00:00 (00:00)
110 Sacraboar Nov 6, 2009 $2.99N/A (N/A)20,000 .. 50,0000%00:00 (00:00)
111 Hearts of Iron 2 Complete Jan 6, 2006 $14.99N/A (N/A/83%)100,000 .. 200,0000%00:00 (00:00)
112 Elven Legacy: Siege Nov 17, 2009 $1.99N/A (N/A)20,000 .. 50,0000%00:00 (00:00)
113 Elven Legacy Apr 7, 2009 $4.99N/A (N/A/71%)50,000 .. 100,0000%00:00 (00:00)
114 Victoria I Complete Aug 20, 2010 $9.99N/A (N/A)100,000 .. 200,0000%00:00 (00:00)
115 Majesty Gold HD Mar 23, 2001 $9.99N/A (N/A)100,000 .. 200,0000%00:00 (00:00)
116 Star Wolves 2 Mar 2, 2010 $3.99N/A (N/A)50,000 .. 100,0000%00:00 (00:00)
117 Patrician III Nov 18, 2010 $4.99N/A (N/A/75%)100,000 .. 200,0000%00:00 (00:00)
118 Theatre of War Apr 19, 2007 $3.99N/A (N/A/66%)100,000 .. 200,0000%00:00 (00:00)
119 XIII Century – Gold Edition Aug 28, 2009 $4.99N/A (N/A)50,000 .. 100,0000%00:00 (00:00)
120 Theatre of War 2: Africa 1943 Apr 24, 2009 $4.99N/A (N/A/63%)100,000 .. 200,0000%00:00 (00:00)
121 Sacrifice Nov 1, 2000 $9.99N/A (N/A/89%)50,000 .. 100,0000%00:00 (00:00)
122 Real Warfare 1242 Jun 11, 2010 $3.99N/A (N/A)20,000 .. 50,0000%00:00 (00:00)
123 The Guild Gold Edition Nov 18, 2002 $9.99N/A (N/A/82%)100,000 .. 200,0000%00:00 (00:00)
124 Theatre of War 2: Kursk 1943 Mar 9, 2010 $4.99N/A (N/A)50,000 .. 100,0000%00:00 (00:00)
125 Civilization IV: Warlords Jul 24, 2006 $4.99N/A (N/A/84%)1,000,000 .. 2,000,0000%00:00 (00:00)
126 Dangerous Waters Feb 7, 2006 $2.99N/A (N/A/82%)50,000 .. 100,0000%00:00 (00:00)
127 Rome: Total War - Alexander Jun 26, 2006 $12.99N/A (N/A/79%)500,000 .. 1,000,0000%00:00 (00:00)
128 Space Empires IV Deluxe Feb 7, 2006 $9.99N/A (N/A/79%)50,000 .. 100,0000%00:00 (00:00)
129 Cossacks: Art of War Mar 31, 2002 $4.99N/A (N/A)20,000 .. 50,0000%00:00 (00:00)
130 Iron Warriors: T - 72 Tank Command Jul 26, 2006 $4.99N/A (N/A/56%)20,000 .. 50,0000%00:00 (00:00)
131 Cossacks II: Battle for Europe Jun 19, 2006 $4.99N/A (N/A/69%)100,000 .. 200,0000%00:00 (00:00)
132 ThreadSpace: Hyperbol Jul 12, 2007 $4.99N/A (N/A)0 .. 20,0000%00:00 (00:00)
133 Ghost Master Aug 23, 2003 $4.99N/A (N/A/81%)100,000 .. 200,0000%00:00 (00:00)
134 688(I) Hunter/Killer Jul 4, 1997 $9.99N/A (N/A)20,000 .. 50,0000%00:00 (00:00)
135 Vegas: Make It Big Dec 21, 2006 $4.99N/A (N/A)20,000 .. 50,0000%00:00 (00:00)
136 Sub Command Oct 1, 2001 $9.99N/A (N/A/84%)20,000 .. 50,0000%00:00 (00:00)
137 Joint Task Force Sep 12, 2006 $7.99N/A (N/A/68%)20,000 .. 50,0000%00:00 (00:00)
138 Men of War: Red Tide Nov 1, 2009 $4.99N/A (N/A/77%)200,000 .. 500,0000%00:00 (00:00)
139 Commandos 3: Destination Berlin Oct 14, 2003 $4.99N/A (N/A/72%)500,000 .. 1,000,0000%00:00 (00:00)
140 Genesis Rising Mar 20, 2007 $4.99N/A (N/A/57%)20,000 .. 50,0000%00:00 (00:00)
141 Darwinia Jul 14, 2005 $9.99N/A (N/A/84%)500,000 .. 1,000,0000%00:00 (00:00)

Tags over time:

Access restricted.

This feature is only available to users with special access rights. Sorry.

If you want to proceed, you need to register or log in first and then back Steam Spy on Patreon. Look for Indie or Pro pledge.

Don't forget to use the same email as on Steam Spy!

Owners of this game also own:

Access restricted.

This feature is only available to users with special access rights. Sorry.

If you want to proceed, you need to register or log in first and then back Steam Spy on Patreon. Look for Indie or Pro pledge.

Don't forget to use the same email as on Steam Spy!

Playtime distribution:

Access restricted.

This feature is only available to users with special access rights. Sorry.

If you want to proceed, you need to register or log in first and then back Steam Spy on Patreon. Look for Indie or Pro pledge.

Don't forget to use the same email as on Steam Spy!

Playtime (2 weeks):

Access restricted.

This feature is only available to users with special access rights. Sorry.

If you want to proceed, you need to register or log in first and then back Steam Spy on Patreon. Look for Indie or Pro pledge.

Don't forget to use the same email as on Steam Spy!

User reviews:

Login required.

Please register or log in to see this information.